Valtellina — ICKF — position and weather

sailwx.info

Track history (hours):
 
Tides and Currents Weather Stations Pressure Air Temp Water Temp Dewpoint Dewpoint Depression Visibility Wind Speed Wind Dir Waves Ship Positions

Valtellina

Last reported at 2016-Aug-31 02:30 UTC. Time now 2016-Aug-31 06:02 UTC.
Position N 34°05' E 015°23'.

Length 184 m; draft 10.8 m.

Type: Ship (hazmat cat D). MMSI: 247243900.

Date/timePositionNaut miles runAvg speedWind from/ knotsBaromVisibWave heightAir tempDewpointWater temp
2016-Aug-31 02:30N 34°05' E 015°23'0 0.2
2016-Aug-31 00:30N 34°05' E 015°23'0 0.2
2016-Aug-30 22:33N 34°05' E 015°24'9 0.7
2016-Aug-30 10:07N 34°01' E 015°14'0 0.7
2016-Aug-30 09:28N 34°01' E 015°14'1 0.7
2016-Aug-30 08:19N 34°02' E 015°13'5 0.7
2016-Aug-30 00:22N 34°05' E 015°09'0 0.4
2016-Aug-29 23:31N 34°06' E 015°08'1 0.6
2016-Aug-29 22:10N 34°06' E 015°07'1 1.5
2016-Aug-29 21:33N 34°06' E 015°06'8 8.5
2016-Aug-29 20:33N 34°04' E 014°56'1512.0
2016-Aug-29 19:18N 34°00' E 014°39'811.4
2016-Aug-29 18:33N 33°59' E 014°29'1110.9
2016-Aug-29 17:33N 34°02' E 014°42'1212.0
2016-Aug-29 16:33N 34°02' E 014°56'1211.8
2016-Aug-29 15:33N 34°02' E 015°10'1511.7
2016-Aug-29 14:13N 34°03' E 015°29'1 0.8
2016-Aug-29 13:30N 34°03' E 015°30'0 0.3
2016-Aug-29 12:25N 34°03' E 015°30'0 0.4
2016-Aug-29 11:34N 34°03' E 015°30'0 0.4
2016-Aug-29 10:30N 34°04' E 015°30'1 0.5
2016-Aug-29 09:29N 34°04' E 015°30'1 0.5
2016-Aug-29 08:29N 34°05' E 015°30'1 0.6
2016-Aug-29 07:32N 34°05' E 015°30'2 0.5
2016-Aug-29 03:11N 34°07' E 015°28'0 0.3
2016-Aug-29 02:26N 34°07' E 015°28'0 0.2
2016-Aug-29 01:32N 34°07' E 015°28'10 1.0
2016-Aug-28 15:33N 33°58' E 015°30'0 0.5
2016-Aug-28 14:32N 33°58' E 015°30'1 0.5
2016-Aug-28 13:13N 33°59' E 015°30'101 6.3
2016-Aug-27 21:13N 35°36' E 014°60'812.4
2016-Aug-27 20:34N 35°44' E 014°58'5 5.2
2016-Aug-27 19:33N 35°49' E 014°56'0 0.1
2016-Aug-27 18:33N 35°49' E 014°56'0 0.1
2016-Aug-27 17:33N 35°49' E 014°56'0 0.0
2016-Aug-27 16:21N 35°49' E 014°56'0 0.0
2016-Aug-27 15:33N 35°49' E 014°56'0 0.1
2016-Aug-27 14:33N 35°49' E 014°56'0 0.0
2016-Aug-27 13:27N 35°49' E 014°56'0 0.1
2016-Aug-27 12:03N 35°49' E 014°56'0 0.0
2016-Aug-26 20:27N 35°49' E 014°57'0 0.2
2016-Aug-26 19:28N 35°49' E 014°57'4 1.4
2016-Aug-26 16:26N 35°53' E 014°56'4 0.5
2016-Aug-26 08:14N 35°54' E 014°51'0 0.0
2016-Aug-26 07:26N 35°54' E 014°51'0 0.0
2016-Aug-26 06:26N 35°54' E 014°51'0 0.0
2016-Aug-26 04:32N 35°54' E 014°51'0 0.0
2016-Aug-26 03:32N 35°54' E 014°51'0 0.0
2016-Aug-26 02:29N 35°54' E 014°51'0 0.0
2016-Aug-26 01:32N 35°54' E 014°51'0 0.0
2016-Aug-26 00:32N 35°54' E 014°51'0 0.0
2016-Aug-25 23:29N 35°54' E 014°51'0 0.0
2016-Aug-25 22:29N 35°54' E 014°51'0 0.0
2016-Aug-25 21:29N 35°54' E 014°51'0 0.1
2016-Aug-25 20:23N 35°54' E 014°51'0 0.3
2016-Aug-25 19:33N 35°54' E 014°51'1010.2
2016-Aug-25 18:33N 35°49' E 014°41'1211.8
2016-Aug-25 17:33N 35°46' E 014°26'1110.9
2016-Aug-25 16:33N 35°54' E 014°17'4 3.9
2016-Aug-25 15:33N 35°58' E 014°19'0 0.0
2016-Aug-25 14:33N 35°57' E 014°19'0 0.0
2016-Aug-25 13:33N 35°58' E 014°19'0 0.1
2016-Aug-25 12:33N 35°57' E 014°19'0 0.1
2016-Aug-25 11:33N 35°58' E 014°19'3 2.7
2016-Aug-25 10:33N 35°55' E 014°18'1110.9
2016-Aug-25 09:33N 35°46' E 014°24'1312.6
2016-Aug-25 08:33N 35°49' E 014°39'1313.2
2016-Aug-25 07:33N 35°59' E 014°50'1 1.1
2016-Aug-25 06:31N 35°60' E 014°51'0 0.0
2016-Aug-25 04:31N 35°60' E 014°51'0 0.0
2016-Aug-25 03:28N 35°60' E 014°51'0 0.0
2016-Aug-25 02:31N 35°60' E 014°51'0 0.0
2016-Aug-25 01:31N 35°60' E 014°51'0 0.0
2016-Aug-24 23:28N 35°60' E 014°51'0 0.0
2016-Aug-24 18:31N 35°60' E 014°51'0 0.0
2016-Aug-24 17:31N 35°60' E 014°51'0 0.0
2016-Aug-24 16:28N 35°60' E 014°51'0 0.0
2016-Aug-24 15:31N 35°60' E 014°51'0 0.0
2016-Aug-24 14:28N 35°60' E 014°51'0 0.0
2016-Aug-24 13:10N 35°60' E 014°51'0 0.0
2016-Aug-24 12:28N 35°60' E 014°51'0 0.0
2016-Aug-24 11:19N 35°60' E 014°51'0 0.0
2016-Aug-24 10:31N 35°60' E 014°51'0 0.0
2016-Aug-24 09:16N 35°60' E 014°51'0 0.0
2016-Aug-24 08:25N 35°60' E 014°51'0 0.0
2016-Aug-24 07:04N 35°60' E 014°51'0 0.0
2016-Aug-24 06:16N 35°60' E 014°51'0 0.0
2016-Aug-24 04:28N 35°60' E 014°51'0 0.1
2016-Aug-24 03:31N 35°60' E 014°51'0 0.0
2016-Aug-24 00:16N 35°60' E 014°51'0 0.0
2016-Aug-23 18:22N 35°60' E 014°51'0 0.0
2016-Aug-23 17:19N 35°60' E 014°51'0 0.0
2016-Aug-23 16:28N 35°60' E 014°51'0 0.0
2016-Aug-23 15:28N 35°60' E 014°51'0 0.0
2016-Aug-23 02:25N 35°60' E 014°51'0 0.1
2016-Aug-23 01:25N 35°60' E 014°52'0 0.1
2016-Aug-23 00:25N 35°60' E 014°52'0 0.0
2016-Aug-22 23:25N 35°60' E 014°52'0 0.0
2016-Aug-22 22:31N 35°60' E 014°52'0 0.0
2016-Aug-22 21:31N 35°60' E 014°52'0 0.0
2016-Aug-22 20:31N 35°60' E 014°52'0 0.1
2016-Aug-22 19:31N 35°60' E 014°52'0 0.1
2016-Aug-22 18:31N 35°60' E 014°52'0 0.0
2016-Aug-22 17:31N 35°60' E 014°52'0 0.0
2016-Aug-22 16:31N 35°60' E 014°52'0 0.0
2016-Aug-22 15:31N 35°60' E 014°52'0 0.0
2016-Aug-22 14:31N 35°60' E 014°52'0 0.0
2016-Aug-22 13:31N 35°60' E 014°52'0 0.0
2016-Aug-22 12:31N 35°60' E 014°52'0 0.0
2016-Aug-22 11:31N 35°60' E 014°52'0 0.0
2016-Aug-22 10:28N 35°60' E 014°52'0 0.0
2016-Aug-22 09:31N 35°60' E 014°52'0 0.0
2016-Aug-22 08:31N 35°60' E 014°52'0 0.0
2016-Aug-22 07:31N 35°60' E 014°52'0 0.0
2016-Aug-22 06:31N 35°60' E 014°52'2 1.9
2016-Aug-22 05:33N 36°01' E 014°53'8 7.4
2016-Aug-22 04:32N 36°07' E 014°58'8 8.3
2016-Aug-22 03:33N 36°15' E 015°03'8 8.4
2016-Aug-22 02:33N 36°22' E 015°08'8 8.4
2016-Aug-22 01:33N 36°29' E 015°13'9 8.6
2016-Aug-22 00:33N 36°37' E 015°18'9 8.5
2016-Aug-21 23:33N 36°44' E 015°23'9 8.5
2016-Aug-21 22:33N 36°52' E 015°28'9 8.5
2016-Aug-21 21:33N 36°59' E 015°34'8 8.5
2016-Aug-21 20:33N 37°06' E 015°39'9 8.6
2016-Aug-21 19:33N 37°14' E 015°44'9 9.3
2016-Aug-21 18:33N 37°22' E 015°50'8 8.4
2016-Aug-21 17:33N 37°30' E 015°54'8 8.4
2016-Aug-21 16:33N 37°37' E 015°60'9 8.5
2016-Aug-21 15:33N 37°44' E 016°05'  
Track history (hours):
 
Tides and Currents Weather Stations Pressure Air Temp Water Temp Dewpoint Dewpoint Depression Visibility Wind Speed Wind Dir Waves Ship Positions

Valtellina

Last reported at 2016-Aug-31 02:30 UTC. Time now 2016-Aug-31 06:02 UTC.
Position N 34°05' E 015°23'.

Length 184 m; draft 10.8 m.

Type: Ship (hazmat cat D). MMSI: 247243900.

Date/timePositionNaut miles runAvg speedWind from/ knotsBaromVisibWave heightAir tempDewpointWater temp
2016-Aug-31 02:30N 34°05' E 015°23'0 0.2
2016-Aug-31 00:30N 34°05' E 015°23'0 0.2
2016-Aug-30 22:33N 34°05' E 015°24'9 0.7
2016-Aug-30 10:07N 34°01' E 015°14'0 0.7
2016-Aug-30 09:28N 34°01' E 015°14'1 0.7
2016-Aug-30 08:19N 34°02' E 015°13'5 0.7
2016-Aug-30 00:22N 34°05' E 015°09'0 0.4
2016-Aug-29 23:31N 34°06' E 015°08'1 0.6
2016-Aug-29 22:10N 34°06' E 015°07'1 1.5
2016-Aug-29 21:33N 34°06' E 015°06'8 8.5
2016-Aug-29 20:33N 34°04' E 014°56'1512.0
2016-Aug-29 19:18N 34°00' E 014°39'811.4
2016-Aug-29 18:33N 33°59' E 014°29'1110.9
2016-Aug-29 17:33N 34°02' E 014°42'1212.0
2016-Aug-29 16:33N 34°02' E 014°56'1211.8
2016-Aug-29 15:33N 34°02' E 015°10'1511.7
2016-Aug-29 14:13N 34°03' E 015°29'1 0.8
2016-Aug-29 13:30N 34°03' E 015°30'0 0.3
2016-Aug-29 12:25N 34°03' E 015°30'0 0.4
2016-Aug-29 11:34N 34°03' E 015°30'0 0.4
2016-Aug-29 10:30N 34°04' E 015°30'1 0.5
2016-Aug-29 09:29N 34°04' E 015°30'1 0.5
2016-Aug-29 08:29N 34°05' E 015°30'1 0.6
2016-Aug-29 07:32N 34°05' E 015°30'2 0.5
2016-Aug-29 03:11N 34°07' E 015°28'0 0.3
2016-Aug-29 02:26N 34°07' E 015°28'0 0.2
2016-Aug-29 01:32N 34°07' E 015°28'10 1.0
2016-Aug-28 15:33N 33°58' E 015°30'0 0.5
2016-Aug-28 14:32N 33°58' E 015°30'1 0.5
2016-Aug-28 13:13N 33°59' E 015°30'101 6.3
2016-Aug-27 21:13N 35°36' E 014°60'812.4
2016-Aug-27 20:34N 35°44' E 014°58'5 5.2
2016-Aug-27 19:33N 35°49' E 014°56'0 0.1
2016-Aug-27 18:33N 35°49' E 014°56'0 0.1
2016-Aug-27 17:33N 35°49' E 014°56'0 0.0
2016-Aug-27 16:21N 35°49' E 014°56'0 0.0
2016-Aug-27 15:33N 35°49' E 014°56'0 0.1
2016-Aug-27 14:33N 35°49' E 014°56'0 0.0
2016-Aug-27 13:27N 35°49' E 014°56'0 0.1
2016-Aug-27 12:03N 35°49' E 014°56'0 0.0
2016-Aug-26 20:27N 35°49' E 014°57'0 0.2
2016-Aug-26 19:28N 35°49' E 014°57'4 1.4
2016-Aug-26 16:26N 35°53' E 014°56'4 0.5
2016-Aug-26 08:14N 35°54' E 014°51'0 0.0
2016-Aug-26 07:26N 35°54' E 014°51'0 0.0
2016-Aug-26 06:26N 35°54' E 014°51'0 0.0
2016-Aug-26 04:32N 35°54' E 014°51'0 0.0
2016-Aug-26 03:32N 35°54' E 014°51'0 0.0
2016-Aug-26 02:29N 35°54' E 014°51'0 0.0
2016-Aug-26 01:32N 35°54' E 014°51'0 0.0
2016-Aug-26 00:32N 35°54' E 014°51'0 0.0
2016-Aug-25 23:29N 35°54' E 014°51'0 0.0
2016-Aug-25 22:29N 35°54' E 014°51'0 0.0
2016-Aug-25 21:29N 35°54' E 014°51'0 0.1
2016-Aug-25 20:23N 35°54' E 014°51'0 0.3
2016-Aug-25 19:33N 35°54' E 014°51'1010.2
2016-Aug-25 18:33N 35°49' E 014°41'1211.8
2016-Aug-25 17:33N 35°46' E 014°26'1110.9
2016-Aug-25 16:33N 35°54' E 014°17'4 3.9
2016-Aug-25 15:33N 35°58' E 014°19'0 0.0
2016-Aug-25 14:33N 35°57' E 014°19'0 0.0
2016-Aug-25 13:33N 35°58' E 014°19'0 0.1
2016-Aug-25 12:33N 35°57' E 014°19'0 0.1
2016-Aug-25 11:33N 35°58' E 014°19'3 2.7
2016-Aug-25 10:33N 35°55' E 014°18'1110.9
2016-Aug-25 09:33N 35°46' E 014°24'1312.6
2016-Aug-25 08:33N 35°49' E 014°39'1313.2
2016-Aug-25 07:33N 35°59' E 014°50'1 1.1
2016-Aug-25 06:31N 35°60' E 014°51'0 0.0
2016-Aug-25 04:31N 35°60' E 014°51'0 0.0
2016-Aug-25 03:28N 35°60' E 014°51'0 0.0
2016-Aug-25 02:31N 35°60' E 014°51'0 0.0
2016-Aug-25 01:31N 35°60' E 014°51'0 0.0
2016-Aug-24 23:28N 35°60' E 014°51'0 0.0
2016-Aug-24 18:31N 35°60' E 014°51'0 0.0
2016-Aug-24 17:31N 35°60' E 014°51'0 0.0
2016-Aug-24 16:28N 35°60' E 014°51'0 0.0
2016-Aug-24 15:31N 35°60' E 014°51'0 0.0
2016-Aug-24 14:28N 35°60' E 014°51'0 0.0
2016-Aug-24 13:10N 35°60' E 014°51'0 0.0
2016-Aug-24 12:28N 35°60' E 014°51'0 0.0
2016-Aug-24 11:19N 35°60' E 014°51'0 0.0
2016-Aug-24 10:31N 35°60' E 014°51'0 0.0
2016-Aug-24 09:16N 35°60' E 014°51'0 0.0
2016-Aug-24 08:25N 35°60' E 014°51'0 0.0
2016-Aug-24 07:04N 35°60' E 014°51'0 0.0
2016-Aug-24 06:16N 35°60' E 014°51'0 0.0
2016-Aug-24 04:28N 35°60' E 014°51'0 0.1
2016-Aug-24 03:31N 35°60' E 014°51'0 0.0
2016-Aug-24 00:16N 35°60' E 014°51'0 0.0
2016-Aug-23 18:22N 35°60' E 014°51'0 0.0
2016-Aug-23 17:19N 35°60' E 014°51'0 0.0
2016-Aug-23 16:28N 35°60' E 014°51'0 0.0
2016-Aug-23 15:28N 35°60' E 014°51'0 0.0
2016-Aug-23 02:25N 35°60' E 014°51'0 0.1
2016-Aug-23 01:25N 35°60' E 014°52'0 0.1
2016-Aug-23 00:25N 35°60' E 014°52'0 0.0
2016-Aug-22 23:25N 35°60' E 014°52'0 0.0
2016-Aug-22 22:31N 35°60' E 014°52'0 0.0
2016-Aug-22 21:31N 35°60' E 014°52'0 0.0
2016-Aug-22 20:31N 35°60' E 014°52'0 0.1
2016-Aug-22 19:31N 35°60' E 014°52'0 0.1
2016-Aug-22 18:31N 35°60' E 014°52'0 0.0
2016-Aug-22 17:31N 35°60' E 014°52'0 0.0
2016-Aug-22 16:31N 35°60' E 014°52'0 0.0
2016-Aug-22 15:31N 35°60' E 014°52'0 0.0
2016-Aug-22 14:31N 35°60' E 014°52'0 0.0
2016-Aug-22 13:31N 35°60' E 014°52'0 0.0
2016-Aug-22 12:31N 35°60' E 014°52'0 0.0
2016-Aug-22 11:31N 35°60' E 014°52'0 0.0
2016-Aug-22 10:28N 35°60' E 014°52'0 0.0
2016-Aug-22 09:31N 35°60' E 014°52'0 0.0
2016-Aug-22 08:31N 35°60' E 014°52'0 0.0
2016-Aug-22 07:31N 35°60' E 014°52'0 0.0
2016-Aug-22 06:31N 35°60' E 014°52'2 1.9
2016-Aug-22 05:33N 36°01' E 014°53'8 7.4
2016-Aug-22 04:32N 36°07' E 014°58'8 8.3
2016-Aug-22 03:33N 36°15' E 015°03'8 8.4
2016-Aug-22 02:33N 36°22' E 015°08'8 8.4
2016-Aug-22 01:33N 36°29' E 015°13'9 8.6
2016-Aug-22 00:33N 36°37' E 015°18'9 8.5
2016-Aug-21 23:33N 36°44' E 015°23'9 8.5
2016-Aug-21 22:33N 36°52' E 015°28'9 8.5
2016-Aug-21 21:33N 36°59' E 015°34'8 8.5
2016-Aug-21 20:33N 37°06' E 015°39'9 8.6
2016-Aug-21 19:33N 37°14' E 015°44'9 9.3
2016-Aug-21 18:33N 37°22' E 015°50'8 8.4
2016-Aug-21 17:33N 37°30' E 015°54'8 8.4
2016-Aug-21 16:33N 37°37' E 015°60'9 8.5
2016-Aug-21 15:33N 37°44' E 016°05'  

Dump ship's entire track history